Time;durP1;ratioP1;P1;durP2;ratioP2;P2;SDS_P1;SDS_P2;PMS_P1;PMS_P2;Temp;Humidity;BMP_temperature;BMP_pressure;BME280_temperature;BME280_humidity;BME280_pressure;Samples;Min_cycle;Max_cycle;Signal;HPM_P1;HPM_P2
2021/10/16 00:00:42;;;;;;;;;;;;;;;18.40;58.13;99981.03;2074299;28;20330;-47
2021/10/16 00:01:42;;;;;;;;;;;;;;;18.40;58.13;99980.16;2078700;28;19939;-46
2021/10/16 00:02:42;;;;;;;;;;;;;;;18.39;58.20;99979.28;2075836;28;19917;-49
2021/10/16 00:03:42;;;;;;;;;;;;;;;18.39;58.32;99979.28;2075363;28;20184;-46
2021/10/16 00:04:43;;;;;;;;;;;;;;;18.40;58.28;99980.16;2075932;28;19924;-46
2021/10/16 00:05:43;;;;;;;;;;;;;;;18.39;58.23;99982.00;2077931;28;19931;-46
2021/10/16 00:06:44;;;;;;;;;;;;;;;18.38;58.32;99977.56;2076377;28;20754;-46
2021/10/16 00:07:44;;;;;;;;;;;;;;;18.39;58.13;99975.69;2077737;28;19924;-46
2021/10/16 00:08:45;;;;;;;;;;;;;;;18.38;58.21;99983.03;2077332;28;19967;-47
2021/10/16 00:09:45;;;;;;;;;;;;;;;18.38;58.21;99980.31;2077002;28;20282;-48
2021/10/16 00:10:45;;;;;;;;;;;;;;;18.38;58.32;99985.75;2077545;28;19917;-46
2021/10/16 00:11:45;;;;;;;;;;;;;;;18.38;58.23;99982.19;2075646;28;20172;-48
2021/10/16 00:12:46;;;;;;;;;;;;;;;18.39;58.19;99983.88;2076129;28;20376;-48
2021/10/16 00:13:46;;;;;;;;;;;;;;;18.38;58.35;99988.50;2076983;28;19943;-46
2021/10/16 00:14:46;;;;;;;;;;;;;;;18.38;58.39;99988.50;2076909;28;19924;-46
2021/10/16 00:15:47;;;;;;;;;;;;;;;18.38;58.15;99987.63;2077820;28;20427;-47
2021/10/16 00:16:47;;;;;;;;;;;;;;;18.38;58.29;99982.19;2074122;28;20338;-46
2021/10/16 00:17:47;;;;;;;;;;;;;;;18.38;58.29;99982.19;2077839;28;19908;-47
2021/10/16 00:18:48;;;;;;;;;;;;;;;18.38;58.16;99988.50;2077345;28;19920;-47
2021/10/16 00:19:48;;;;;;;;;;;;;;;18.38;58.17;99985.75;2076957;28;19932;-46
2021/10/16 00:20:48;;;;;;;;;;;;;;;18.38;58.22;99987.63;2076675;28;19957;-46
2021/10/16 00:21:49;;;;;;;;;;;;;;;18.37;58.20;99981.31;2077043;28;20374;-46
2021/10/16 00:22:49;;;;;;;;;;;;;;;18.38;58.37;99988.50;2077676;28;19952;-49
2021/10/16 00:23:49;;;;;;;;;;;;;;;18.37;58.39;99986.78;2073261;28;19948;-46
2021/10/16 00:24:50;;;;;;;;;;;;;;;18.37;58.43;99986.78;2074201;28;19917;-48
2021/10/16 00:25:50;;;;;;;;;;;;;;;18.37;58.31;99989.50;2077089;28;20350;-46
2021/10/16 00:26:50;;;;;;;;;;;;;;;18.37;58.45;99986.78;2072105;28;19917;-47
2021/10/16 00:27:51;;;;;;;;;;;;;;;18.36;58.35;99987.78;2073221;28;20125;-46
2021/10/16 00:28:51;;;;;;;;;;;;;;;18.37;58.33;99981.31;2077570;28;19979;-47
2021/10/16 00:29:51;;;;;;;;;;;;;;;18.37;58.40;99985.91;2076391;28;19970;-48
2021/10/16 00:30:52;;;;;;;;;;;;;;;18.36;58.38;99979.59;2073936;28;20023;-47
2021/10/16 00:31:52;;;;;;;;;;;;;;;18.36;58.30;99979.59;2073346;28;20601;-48
2021/10/16 00:32:52;;;;;;;;;;;;;;;18.36;58.33;99979.59;2075678;28;20059;-50
2021/10/16 00:33:52;;;;;;;;;;;;;;;18.36;58.43;99985.03;2073471;28;19924;-47
2021/10/16 00:34:53;;;;;;;;;;;;;;;18.36;58.33;99976.84;2074712;28;19928;-47
2021/10/16 00:35:53;;;;;;;;;;;;;;;18.36;58.40;99984.19;2076899;28;19916;-46
2021/10/16 00:36:53;;;;;;;;;;;;;;;18.36;58.43;99985.03;2074331;28;20354;-47
2021/10/16 00:37:54;;;;;;;;;;;;;;;18.35;58.24;99983.34;2073816;28;19951;-47
2021/10/16 00:38:54;;;;;;;;;;;;;;;18.35;58.36;99983.34;2075338;28;20239;-46
2021/10/16 00:39:55;;;;;;;;;;;;;;;18.35;58.42;99982.47;2076862;28;19913;-46
2021/10/16 00:40:55;;;;;;;;;;;;;;;18.35;58.28;99986.06;2077256;28;20466;-46
2021/10/16 00:41:55;;;;;;;;;;;;;;;18.35;58.37;99980.59;2076093;28;19939;-48
2021/10/16 00:42:56;;;;;;;;;;;;;;;18.35;58.35;99982.47;2077349;28;19917;-47
2021/10/16 00:44:14;;;;;;;;;;;;;;;18.35;58.23;99986.06;2075230;28;20014;-47
2021/10/16 00:45:15;;;;;;;;;;;;;;;18.36;58.28;99990.50;2075758;28;20019;-47
2021/10/16 00:46:15;;;;;;;;;;;;;;;18.36;58.29;99986.91;2077384;28;20319;-47
2021/10/16 00:47:15;;;;;;;;;;;;;;;18.35;58.43;99982.47;2075665;28;19917;-46
2021/10/16 00:48:16;;;;;;;;;;;;;;;18.35;58.40;99988.78;2065379;28;19915;-46
2021/10/16 00:49:16;;;;;;;;;;;;;;;18.35;58.40;99996.97;2068694;28;20250;-47
2021/10/16 00:50:22;;;;;;;;;;;;;;;18.36;58.41;99995.09;2075577;28;20187;-47
2021/10/16 00:51:22;;;;;;;;;;;;;;;18.35;58.15;99996.13;2075730;28;19920;-46
2021/10/16 00:52:22;;;;;;;;;;;;;;;18.34;58.43;99989.78;2068614;28;20780;-47
2021/10/16 00:53:23;;;;;;;;;;;;;;;18.34;58.26;99995.25;2067975;28;19909;-46
2021/10/16 00:54:23;;;;;;;;;;;;;;;18.34;58.26;99992.50;2077042;28;19916;-48
2021/10/16 00:55:24;;;;;;;;;;;;;;;18.34;58.47;99992.50;2076136;28;19917;-46
2021/10/16 00:56:24;;;;;;;;;;;;;;;18.35;58.16;99993.41;2075024;28;19998;-47
2021/10/16 00:57:25;;;;;;;;;;;;;;;18.34;58.46;99992.50;2073216;28;19913;-50
2021/10/16 00:58:25;;;;;;;;;;;;;;;18.34;58.39;99986.19;2073173;28;19947;-47
2021/10/16 00:59:26;;;;;;;;;;;;;;;18.33;58.48;99985.34;2077016;28;19917;-47
2021/10/16 01:00:26;;;;;;;;;;;;;;;18.34;58.49;99984.31;2068792;28;19917;-48
2021/10/16 01:01:29;;;;;;;;;;;;;;;18.33;58.44;99979.88;2066912;28;19925;-46
2021/10/16 01:02:29;;;;;;;;;;;;;;;18.33;58.34;99979.88;2074900;28;19924;-46
2021/10/16 01:03:29;;;;;;;;;;;;;;;18.34;58.46;99983.47;2077085;28;19916;-46
2021/10/16 01:04:29;;;;;;;;;;;;;;;18.33;58.36;99979.88;2071459;28;20457;-46
2021/10/16 01:05:30;;;;;;;;;;;;;;;18.33;58.28;99984.50;2072412;28;19916;-47
2021/10/16 01:06:30;;;;;;;;;;;;;;;18.33;58.30;99979.88;2078633;28;19971;-46
2021/10/16 01:07:31;;;;;;;;;;;;;;;18.33;58.33;99977.16;2067373;28;20517;-47
2021/10/16 01:08:31;;;;;;;;;;;;;;;18.33;58.37;99977.16;2056594;28;20972;-47
2021/10/16 01:09:32;;;;;;;;;;;;;;;18.34;58.39;99978.00;2063852;28;19921;-47
2021/10/16 01:10:32;;;;;;;;;;;;;;;18.33;58.27;99979.88;2075289;28;20749;-47
2021/10/16 01:11:32;;;;;;;;;;;;;;;18.33;58.33;99974.44;2075349;28;19916;-46
2021/10/16 01:12:34;;;;;;;;;;;;;;;18.33;58.46;99974.44;2075977;28;19924;-47
2021/10/16 01:13:34;;;;;;;;;;;;;;;18.32;58.26;99971.84;2073628;28;19908;-47
2021/10/16 01:14:38;;;;;;;;;;;;;;;18.32;58.37;99977.28;2075043;28;20399;-47
2021/10/16 01:15:39;;;;;;;;;;;;;;;18.33;58.29;99988.06;2076408;28;19920;-48
2021/10/16 01:16:41;;;;;;;;;;;;;;;18.33;58.31;99987.22;2074449;28;20021;-49
2021/10/16 01:17:45;;;;;;;;;;;;;;;18.32;58.54;99983.59;2077227;28;20001;-48
2021/10/16 01:18:45;;;;;;;;;;;;;;;18.33;58.34;99979.03;2075477;28;20209;-46
2021/10/16 01:19:48;;;;;;;;;;;;;;;18.32;58.42;99980.88;2067045;28;19929;-47
2021/10/16 01:21:10;;;;;;;;;;;;;;;18.33;58.36;99979.03;2063788;28;19921;-46
2021/10/16 01:22:11;;;;;;;;;;;;;;;18.32;58.34;99975.41;2074575;28;19913;-46
2021/10/16 01:23:11;;;;;;;;;;;;;;;18.32;58.38;99980.88;2075137;28;19916;-46
2021/10/16 01:24:13;;;;;;;;;;;;;;;18.32;58.34;99978.16;2075632;28;20370;-46
2021/10/16 01:25:18;;;;;;;;;;;;;;;18.32;58.55;99985.47;2075228;28;19917;-47
2021/10/16 01:26:18;;;;;;;;;;;;;;;18.32;58.30;99980.03;2076534;28;20023;-47
2021/10/16 01:27:19;;;;;;;;;;;;;;;18.32;58.41;99977.28;2076470;28;19924;-46
2021/10/16 01:28:20;;;;;;;;;;;;;;;18.32;58.33;99983.59;2073198;28;19913;-46
2021/10/16 01:29:23;;;;;;;;;;;;;;;18.31;58.46;99976.44;2064330;28;20621;-46
2021/10/16 01:30:24;;;;;;;;;;;;;;;18.31;58.45;99976.44;2067968;28;20396;-46
2021/10/16 01:31:25;;;;;;;;;;;;;;;18.32;58.31;99980.03;2074332;28;19971;-46
2021/10/16 01:32:25;;;;;;;;;;;;;;;18.30;58.42;99974.75;2076215;28;19920;-48
2021/10/16 01:33:26;;;;;;;;;;;;;;;18.32;58.35;99982.75;2074953;28;19916;-47
2021/10/16 01:34:27;;;;;;;;;;;;;;;18.31;58.54;99975.59;2074810;28;19916;-46
2021/10/16 01:35:27;;;;;;;;;;;;;;;18.31;58.41;99976.44;2066629;28;19917;-46
2021/10/16 01:36:38;;;;;;;;;;;;;;;18.31;58.48;99979.16;2065345;28;20449;-47
2021/10/16 01:37:39;;;;;;;;;;;;;;;18.31;58.34;99981.03;2075900;28;20132;-46
2021/10/16 01:38:40;;;;;;;;;;;;;;;18.32;58.35;99977.28;2076338;28;21138;-46
2021/10/16 01:39:40;;;;;;;;;;;;;;;18.31;58.39;99981.91;2071608;28;19925;-46
2021/10/16 01:40:40;;;;;;;;;;;;;;;18.31;58.58;99979.16;2072950;28;19917;-47
2021/10/16 01:41:41;;;;;;;;;;;;;;;18.31;58.47;99970.13;2070028;28;19917;-46
2021/10/16 01:42:42;;;;;;;;;;;;;;;18.30;58.61;99974.75;2075403;28;20332;-48
2021/10/16 01:43:42;;;;;;;;;;;;;;;18.29;58.46;99973.00;2076582;28;20177;-47
2021/10/16 01:44:43;;;;;;;;;;;;;;;18.30;58.49;99974.75;2070695;28;19931;-47
2021/10/16 01:45:43;;;;;;;;;;;;;;;18.31;58.47;99981.91;2074701;28;19923;-46
2021/10/16 01:46:44;;;;;;;;;;;;;;;18.30;58.40;99980.19;2071894;28;19920;-49
2021/10/16 01:47:48;;;;;;;;;;;;;;;18.30;58.50;99980.19;2072245;28;19917;-46
2021/10/16 01:48:48;;;;;;;;;;;;;;;18.30;58.40;99980.19;2076637;28;19916;-46
2021/10/16 01:49:48;;;;;;;;;;;;;;;18.29;58.47;99983.06;2069525;28;19917;-47
2021/10/16 01:50:49;;;;;;;;;;;;;;;18.29;58.58;99977.59;2075232;28;20266;-45
2021/10/16 01:51:53;;;;;;;;;;;;;;;18.29;58.39;99978.44;2071397;28;20820;-47
2021/10/16 01:52:53;;;;;;;;;;;;;;;18.30;58.49;99977.47;2075566;28;20331;-46
2021/10/16 01:53:53;;;;;;;;;;;;;;;18.30;58.44;99980.19;2073418;28;19922;-46
2021/10/16 01:54:54;;;;;;;;;;;;;;;18.29;58.32;99978.44;2073332;28;19921;-46
2021/10/16 01:55:54;;;;;;;;;;;;;;;18.29;58.40;99975.72;2071430;28;19913;-47
2021/10/16 01:56:55;;;;;;;;;;;;;;;18.29;58.30;99973.00;2074977;28;20305;-46
2021/10/16 01:58:02;;;;;;;;;;;;;;;18.28;58.49;99971.28;2071411;28;20362;-47
2021/10/16 01:59:16;;;;;;;;;;;;;;;18.28;58.48;99976.75;2076661;28;19952;-46
2021/10/16 02:00:16;;;;;;;;;;;;;;;18.29;58.54;99978.44;2071848;28;19938;-46
2021/10/16 02:01:17;;;;;;;;;;;;;;;18.28;58.61;99976.75;2071081;28;19921;-47
2021/10/16 02:02:17;;;;;;;;;;;;;;;18.28;58.50;99976.75;2071183;28;20338;-46
2021/10/16 02:03:17;;;;;;;;;;;;;;;18.28;58.52;99979.47;2074747;28;19921;-46
2021/10/16 02:04:18;;;;;;;;;;;;;;;18.28;58.57;99984.06;2075989;28;20369;-46
2021/10/16 02:05:18;;;;;;;;;;;;;;;18.28;58.47;99975.91;2073136;28;19917;-47
2021/10/16 02:06:18;;;;;;;;;;;;;;;18.28;58.41;99975.91;2075179;28;19942;-47
2021/10/16 02:07:19;;;;;;;;;;;;;;;18.28;58.46;99970.44;2073786;28;20351;-46
2021/10/16 02:08:19;;;;;;;;;;;;;;;18.27;58.62;99969.56;2074633;28;20657;-46
2021/10/16 02:09:19;;;;;;;;;;;;;;;18.28;58.46;99976.75;2075455;28;19921;-46
2021/10/16 02:10:20;;;;;;;;;;;;;;;18.27;58.69;99972.28;2074365;28;19924;-47
2021/10/16 02:11:20;;;;;;;;;;;;;;;18.28;58.58;99971.28;2073597;28;19958;-48
2021/10/16 02:12:20;;;;;;;;;;;;;;;18.27;58.44;99969.56;2070045;28;20569;-46
2021/10/16 02:13:20;;;;;;;;;;;;;;;18.27;58.56;99964.09;2076162;28;20279;-46
2021/10/16 02:14:21;;;;;;;;;;;;;;;18.27;58.52;99977.75;2063890;28;19920;-46
2021/10/16 02:15:21;;;;;;;;;;;;;;;18.27;58.51;99963.25;2052214;28;19918;-46
2021/10/16 02:16:22;;;;;;;;;;;;;;;18.26;58.29;99965.13;2066027;28;20587;-46
2021/10/16 02:17:22;;;;;;;;;;;;;;;18.27;58.49;99963.25;2072320;28;19917;-46
2021/10/16 02:18:23;;;;;;;;;;;;;;;18.27;58.59;99968.69;2069021;28;20301;-46
2021/10/16 02:19:23;;;;;;;;;;;;;;;18.26;58.46;99962.38;2068578;28;19921;-47
2021/10/16 02:20:23;;;;;;;;;;;;;;;18.26;58.41;99967.84;2065276;28;19922;-49
2021/10/16 02:21:24;;;;;;;;;;;;;;;18.27;58.52;99965.97;2075457;28;20327;-46
2021/10/16 02:22:24;;;;;;;;;;;;;;;18.27;58.36;99963.25;2076014;28;20330;-46
2021/10/16 02:23:24;;;;;;;;;;;;;;;18.26;58.35;99965.13;2075653;28;20420;-46
2021/10/16 02:24:25;;;;;;;;;;;;;;;18.27;58.36;99963.25;2068545;28;19943;-46
2021/10/16 02:25:25;;;;;;;;;;;;;;;18.27;58.54;99969.56;2065742;28;20226;-46
2021/10/16 02:26:25;;;;;;;;;;;;;;;18.26;58.54;99962.38;2069610;28;20278;-46
2021/10/16 02:27:26;;;;;;;;;;;;;;;18.27;58.45;99964.09;2075424;28;20035;-46
2021/10/16 02:28:26;;;;;;;;;;;;;;;18.26;58.50;99962.38;2077349;28;20259;-46
2021/10/16 02:29:26;;;;;;;;;;;;;;;18.26;58.50;99962.38;2075050;28;19913;-48
2021/10/16 02:30:26;;;;;;;;;;;;;;;18.27;58.32;99964.09;2074748;28;20476;-48
2021/10/16 02:31:27;;;;;;;;;;;;;;;18.26;58.58;99965.13;2076935;28;19923;-46
2021/10/16 02:32:27;;;;;;;;;;;;;;;18.27;58.41;99960.50;2081542;28;19946;-47
2021/10/16 02:33:27;;;;;;;;;;;;;;;18.26;58.41;99967.84;2083005;28;19939;-47
2021/10/16 02:34:28;;;;;;;;;;;;;;;18.26;58.43;99962.38;2072116;28;19966;-46
2021/10/16 02:35:28;;;;;;;;;;;;;;;18.27;58.36;99969.56;2065664;28;19940;-46
2021/10/16 02:36:28;;;;;;;;;;;;;;;18.26;58.33;99965.13;2066515;28;20230;-47
2021/10/16 02:37:29;;;;;;;;;;;;;;;18.26;58.44;99967.84;2067950;28;19928;-47
2021/10/16 02:38:29;;;;;;;;;;;;;;;18.26;58.32;99956.94;2063185;28;20756;-49
2021/10/16 02:39:30;;;;;;;;;;;;;;;18.26;58.38;99962.38;2079656;28;19966;-47
2021/10/16 02:40:31;;;;;;;;;;;;;;;18.24;58.40;99958.94;2079739;28;20301;-47
2021/10/16 02:41:31;;;;;;;;;;;;;;;18.25;58.49;99960.69;2069879;28;19925;-49
2021/10/16 02:42:32;;;;;;;;;;;;;;;18.26;58.51;99956.06;2075659;28;20366;-47
2021/10/16 02:43:32;;;;;;;;;;;;;;;18.24;58.48;99953.47;2068353;28;19916;-47
2021/10/16 02:44:32;;;;;;;;;;;;;;;18.25;58.36;99963.41;2068450;28;21275;-47
2021/10/16 02:45:33;;;;;;;;;;;;;;;18.25;58.37;99957.94;2076579;28;19943;-47
2021/10/16 02:46:33;;;;;;;;;;;;;;;18.25;58.58;99955.22;2077046;28;19944;-46
2021/10/16 02:47:34;;;;;;;;;;;;;;;18.25;58.52;99960.69;2078233;28;19916;-46
2021/10/16 02:48:35;;;;;;;;;;;;;;;18.25;58.64;99959.78;2070102;28;19909;-48
2021/10/16 02:49:35;;;;;;;;;;;;;;;18.25;58.63;99954.34;2067933;28;19927;-46
2021/10/16 02:50:35;;;;;;;;;;;;;;;18.26;58.51;99958.81;2079733;28;20356;-48
2021/10/16 02:51:35;;;;;;;;;;;;;;;18.25;58.46;99957.06;2074766;28;19920;-46
2021/10/16 02:52:36;;;;;;;;;;;;;;;18.25;58.47;99960.69;2076309;28;19917;-46
2021/10/16 02:53:36;;;;;;;;;;;;;;;18.24;58.53;99958.94;2075168;28;19921;-47
2021/10/16 02:54:36;;;;;;;;;;;;;;;18.25;58.50;99955.22;2076915;28;20661;-47
2021/10/16 02:55:37;;;;;;;;;;;;;;;18.25;58.35;99957.94;2074639;28;20392;-47
2021/10/16 02:56:37;;;;;;;;;;;;;;;18.25;58.39;99960.69;2073647;28;20143;-48
2021/10/16 02:57:37;;;;;;;;;;;;;;;18.24;58.56;99958.94;2076124;28;19968;-46
2021/10/16 02:58:38;;;;;;;;;;;;;;;18.24;58.50;99958.94;2074689;28;20397;-47
2021/10/16 02:59:38;;;;;;;;;;;;;;;18.25;58.45;99954.34;2074070;28;21334;-46
2021/10/16 03:00:38;;;;;;;;;;;;;;;18.24;58.61;99958.94;2078730;28;20223;-48
2021/10/16 03:01:39;;;;;;;;;;;;;;;18.23;58.57;99954.50;2075726;28;19916;-46
2021/10/16 03:02:39;;;;;;;;;;;;;;;18.24;58.53;99961.66;2064213;28;19917;-46
2021/10/16 03:03:40;;;;;;;;;;;;;;;18.23;58.42;99946.31;2068376;28;19991;-46
2021/10/16 03:04:40;;;;;;;;;;;;;;;18.24;58.62;99952.63;2076981;28;19923;-47
2021/10/16 03:05:40;;;;;;;;;;;;;;;18.23;58.44;99950.88;2077919;28;19917;-46
2021/10/16 03:06:41;;;;;;;;;;;;;;;18.23;58.67;99959.06;2074133;28;19943;-47
2021/10/16 03:07:41;;;;;;;;;;;;;;;18.23;58.47;99957.22;2075000;28;19959;-46
2021/10/16 03:08:41;;;;;;;;;;;;;;;18.24;58.58;99960.81;2078311;28;19921;-46
2021/10/16 03:09:42;;;;;;;;;;;;;;;18.24;58.47;99964.41;2078569;28;19916;-47
2021/10/16 03:10:43;;;;;;;;;;;;;;;18.23;58.65;99962.69;2075949;28;20003;-47
2021/10/16 03:11:44;;;;;;;;;;;;;;;18.23;58.45;99957.22;2072151;28;20474;-46
2021/10/16 03:12:44;;;;;;;;;;;;;;;18.24;58.58;99952.63;2073698;28;19921;-50
2021/10/16 03:13:45;;;;;;;;;;;;;;;18.23;58.67;99957.22;2070616;28;19932;-46
2021/10/16 03:14:45;;;;;;;;;;;;;;;18.24;58.58;99958.09;2072469;28;20593;-46
2021/10/16 03:15:45;;;;;;;;;;;;;;;18.23;58.59;99957.22;2070857;28;19921;-47
2021/10/16 03:16:46;;;;;;;;;;;;;;;18.22;58.41;99955.50;2073464;28;20285;-46
2021/10/16 03:17:46;;;;;;;;;;;;;;;18.21;58.31;99949.19;2072374;28;19924;-46
2021/10/16 03:18:48;;;;;;;;;;;;;;;18.22;58.32;99955.50;2074439;28;19964;-46
2021/10/16 03:19:48;;;;;;;;;;;;;;;18.22;58.40;99950.03;2074105;28;20305;-47
2021/10/16 03:20:49;;;;;;;;;;;;;;;18.21;58.20;99953.78;2075943;28;19921;-46
2021/10/16 03:21:49;;;;;;;;;;;;;;;18.21;58.42;99961.97;2072376;28;19913;-46
2021/10/16 03:22:52;;;;;;;;;;;;;;;18.21;58.27;99960.09;2072099;28;20042;-46
2021/10/16 03:23:53;;;;;;;;;;;;;;;18.20;58.24;99958.38;2072202;28;20197;-47
2021/10/16 03:24:53;;;;;;;;;;;;;;;18.20;58.38;99958.38;2073378;28;19921;-47
2021/10/16 03:25:53;;;;;;;;;;;;;;;18.20;58.30;99961.13;2072179;28;19921;-47
2021/10/16 03:26:54;;;;;;;;;;;;;;;18.20;58.34;99960.22;2071184;28;20111;-46
2021/10/16 03:27:54;;;;;;;;;;;;;;;18.20;58.26;99962.97;2072847;28;19917;-46
2021/10/16 03:28:54;;;;;;;;;;;;;;;18.20;58.32;99962.97;2071996;28;19905;-46
2021/10/16 03:29:54;;;;;;;;;;;;;;;18.20;58.39;99960.22;2072209;28;19936;-46
2021/10/16 03:30:55;;;;;;;;;;;;;;;18.20;58.32;99962.97;2074000;28;20060;-46
2021/10/16 03:31:55;;;;;;;;;;;;;;;18.20;58.18;99954.78;2070259;28;19949;-47
2021/10/16 03:32:56;;;;;;;;;;;;;;;18.20;58.34;99966.56;2075926;28;19938;-46
2021/10/16 03:33:56;;;;;;;;;;;;;;;18.20;58.35;99957.50;2073666;28;19987;-47
2021/10/16 03:34:56;;;;;;;;;;;;;;;18.20;58.30;99962.97;2073414;28;19957;-47
2021/10/16 03:35:56;;;;;;;;;;;;;;;18.20;58.32;99957.50;2076293;28;19909;-48
2021/10/16 03:36:57;;;;;;;;;;;;;;;18.20;58.49;99963.84;2076123;28;19971;-46
2021/10/16 03:37:57;;;;;;;;;;;;;;;18.20;58.45;99963.84;2075692;28;19931;-46
2021/10/16 03:38:57;;;;;;;;;;;;;;;18.22;58.34;99963.69;2072948;28;20246;-46
2021/10/16 03:39:58;;;;;;;;;;;;;;;18.22;58.32;99966.41;2076011;28;20624;-46
2021/10/16 03:40:59;;;;;;;;;;;;;;;18.22;58.29;99960.94;2076262;28;19939;-49
2021/10/16 03:41:59;;;;;;;;;;;;;;;18.22;58.13;99955.50;2072469;28;19992;-49
2021/10/16 03:42:59;;;;;;;;;;;;;;;18.23;58.28;99959.97;2071917;28;20684;-45
2021/10/16 03:44:00;;;;;;;;;;;;;;;18.23;58.31;99962.69;2075455;28;20460;-49
2021/10/16 03:45:01;;;;;;;;;;;;;;;18.24;58.52;99963.53;2068290;28;19955;-47
2021/10/16 03:46:01;;;;;;;;;;;;;;;18.24;58.43;99964.41;2066944;28;19921;-51
2021/10/16 03:47:02;;;;;;;;;;;;;;;18.26;58.43;99961.53;2076189;28;20282;-50
2021/10/16 03:48:02;;;;;;;;;;;;;;;18.26;58.68;99961.53;2074382;28;19925;-51
2021/10/16 03:49:02;;;;;;;;;;;;;;;18.26;58.76;99967.84;2075641;28;19919;-49
2021/10/16 03:50:03;;;;;;;;;;;;;;;18.26;58.52;99962.38;2073105;28;19917;-52
2021/10/16 03:51:03;;;;;;;;;;;;;;;18.26;58.46;99965.13;2074795;28;19913;-50
2021/10/16 03:52:04;;;;;;;;;;;;;;;18.27;58.45;99963.25;2074700;28;19960;-47
2021/10/16 03:53:04;;;;;;;;;;;;;;;18.27;58.48;99958.63;2075446;28;20418;-48
2021/10/16 03:54:04;;;;;;;;;;;;;;;18.28;58.63;99960.38;2077791;28;19921;-48
2021/10/16 03:55:05;;;;;;;;;;;;;;;18.28;58.69;99954.91;2074720;28;19937;-48
2021/10/16 03:56:06;;;;;;;;;;;;;;;18.28;58.49;99963.09;2075323;28;19924;-48
2021/10/16 03:57:06;;;;;;;;;;;;;;;18.30;58.67;99969.28;2073503;28;19908;-48
2021/10/16 03:58:07;;;;;;;;;;;;;;;18.28;58.66;99965.84;2075615;28;20357;-48
2021/10/16 03:59:07;;;;;;;;;;;;;;;18.29;58.63;99967.53;2074159;28;19912;-50
2021/10/16 04:00:15;;;;;;;;;;;;;;;18.29;58.52;99967.53;2073894;28;20371;-48
2021/10/16 04:01:15;;;;;;;;;;;;;;;18.29;58.69;99967.53;2069290;28;20023;-49
2021/10/16 04:02:18;;;;;;;;;;;;;;;18.30;58.52;99969.28;2070953;28;19909;-48
2021/10/16 04:03:18;;;;;;;;;;;;;;;18.30;58.58;99972.00;2072954;28;19913;-47
2021/10/16 04:04:19;;;;;;;;;;;;;;;18.31;58.63;99973.72;2074704;28;19923;-49
2021/10/16 04:05:19;;;;;;;;;;;;;;;18.32;58.72;99972.69;2075658;28;19913;-49
2021/10/16 04:06:19;;;;;;;;;;;;;;;18.30;58.83;99972.00;2077136;28;20306;-46
2021/10/16 04:07:19;;;;;;;;;;;;;;;18.31;58.82;99965.53;2072816;28;19917;-47
2021/10/16 04:08:20;;;;;;;;;;;;;;;18.31;58.83;99975.59;2074884;28;19924;-49
2021/10/16 04:09:20;;;;;;;;;;;;;;;18.32;58.71;99972.69;2078278;28;19916;-46
2021/10/16 04:10:20;;;;;;;;;;;;;;;18.32;58.81;99972.69;2075131;28;20142;-47
2021/10/16 04:11:21;;;;;;;;;;;;;;;18.32;58.80;99971.84;2077247;28;19916;-46
2021/10/16 04:12:21;;;;;;;;;;;;;;;18.32;58.89;99971.84;2076828;28;19948;-47
2021/10/16 04:13:22;;;;;;;;;;;;;;;18.31;58.95;99971.00;2076103;28;19948;-47
2021/10/16 04:14:22;;;;;;;;;;;;;;;18.31;59.04;99971.00;2079091;28;19919;-46
2021/10/16 04:15:22;;;;;;;;;;;;;;;18.31;58.98;99976.44;2078002;28;19916;-46
2021/10/16 04:16:23;;;;;;;;;;;;;;;18.31;59.00;99973.72;2073769;28;19916;-46
2021/10/16 04:17:23;;;;;;;;;;;;;;;18.33;59.02;99968.13;2068706;28;20377;-46
2021/10/16 04:18:23;;;;;;;;;;;;;;;18.32;59.08;99967.22;2070487;28;19964;-47
2021/10/16 04:19:24;;;;;;;;;;;;;;;18.33;59.15;99968.13;2068318;28;19941;-47
2021/10/16 04:20:24;;;;;;;;;;;;;;;18.32;58.98;99967.22;2059335;28;19916;-48
2021/10/16 04:21:24;;;;;;;;;;;;;;;18.32;59.14;99969.97;2064516;28;20235;-46
2021/10/16 04:22:25;;;;;;;;;;;;;;;18.32;59.13;99972.69;2074656;28;20237;-46
2021/10/16 04:23:25;;;;;;;;;;;;;;;18.33;58.89;99968.97;2076332;28;19917;-46
2021/10/16 04:24:25;;;;;;;;;;;;;;;18.33;58.98;99973.59;2071670;28;19910;-46
2021/10/16 04:25:26;;;;;;;;;;;;;;;18.33;58.91;99968.97;2072383;28;20468;-48
2021/10/16 04:26:27;;;;;;;;;;;;;;;18.33;58.89;99971.72;2075158;28;19912;-46
2021/10/16 04:27:28;;;;;;;;;;;;;;;18.33;58.95;99968.13;2076385;28;20311;-47
2021/10/16 04:28:28;;;;;;;;;;;;;;;18.33;59.13;99958.06;2076108;28;19916;-48
2021/10/16 04:29:29;;;;;;;;;;;;;;;18.33;59.03;99968.97;2076840;28;19909;-47
2021/10/16 04:30:29;;;;;;;;;;;;;;;18.33;59.08;99968.97;2072866;28;20007;-44
2021/10/16 04:31:29;;;;;;;;;;;;;;;18.35;59.11;99961.50;2077483;28;19917;-44
2021/10/16 04:32:30;;;;;;;;;;;;;;;18.34;58.95;99961.66;2074485;28;19923;-44
2021/10/16 04:33:30;;;;;;;;;;;;;;;18.35;59.04;99963.38;2075980;28;20344;-44
2021/10/16 04:34:30;;;;;;;;;;;;;;;18.34;59.12;99961.66;2076331;28;19913;-45
2021/10/16 04:35:31;;;;;;;;;;;;;;;18.34;59.09;99964.38;2074501;28;19979;-45
2021/10/16 04:36:31;;;;;;;;;;;;;;;18.33;59.12;99966.25;2074177;28;20406;-45
2021/10/16 04:37:31;;;;;;;;;;;;;;;18.34;59.17;99959.78;2070935;28;20358;-45
2021/10/16 04:38:32;;;;;;;;;;;;;;;18.34;58.96;99962.50;2074839;28;19929;-44
2021/10/16 04:39:32;;;;;;;;;;;;;;;18.34;58.95;99965.22;2073417;28;20151;-46
2021/10/16 04:40:32;;;;;;;;;;;;;;;18.35;59.19;99960.66;2076214;28;20315;-45
2021/10/16 04:41:36;;;;;;;;;;;;;;;18.35;59.08;99957.94;2072763;28;19964;-45
2021/10/16 04:42:36;;;;;;;;;;;;;;;18.35;59.20;99961.50;2080582;28;19992;-44
2021/10/16 04:43:41;;;;;;;;;;;;;;;18.35;59.08;99957.94;2085864;28;19916;-46
2021/10/16 04:44:41;;;;;;;;;;;;;;;18.34;59.20;99951.59;2073525;28;20291;-45
2021/10/16 04:45:43;;;;;;;;;;;;;;;18.35;59.34;99960.66;2074362;28;19928;-45
2021/10/16 04:46:43;;;;;;;;;;;;;;;18.35;59.24;99958.78;2077346;28;20294;-45
2021/10/16 04:47:44;;;;;;;;;;;;;;;18.35;59.30;99961.50;2074943;28;19921;-46
2021/10/16 04:48:44;;;;;;;;;;;;;;;18.36;59.18;99965.94;2076459;28;19916;-45
2021/10/16 04:49:45;;;;;;;;;;;;;;;18.35;59.19;99966.97;2072924;28;19909;-46
2021/10/16 04:50:46;;;;;;;;;;;;;;;18.36;59.22;99965.09;2071014;28;19966;-45
2021/10/16 04:51:46;;;;;;;;;;;;;;;18.35;59.27;99966.09;2077589;28;20248;-46
2021/10/16 04:52:47;;;;;;;;;;;;;;;18.35;59.26;99964.22;2072244;28;20566;-45
2021/10/16 04:53:47;;;;;;;;;;;;;;;18.36;59.28;99965.94;2071925;28;19908;-45
2021/10/16 04:54:48;;;;;;;;;;;;;;;18.36;59.23;99963.22;2072438;28;19917;-45
2021/10/16 04:55:50;;;;;;;;;;;;;;;18.36;59.07;99960.47;2068653;28;20666;-46
2021/10/16 04:56:50;;;;;;;;;;;;;;;18.35;59.25;99958.78;2077020;28;19909;-45
2021/10/16 04:57:50;;;;;;;;;;;;;;;18.37;59.02;99964.06;2081260;28;19999;-46
2021/10/16 04:58:50;;;;;;;;;;;;;;;18.36;58.95;99957.75;2076558;28;20451;-45
2021/10/16 04:59:51;;;;;;;;;;;;;;;18.36;59.21;99957.75;2076017;28;19921;-46
2021/10/16 05:00:51;;;;;;;;;;;;;;;18.37;59.17;99964.94;2075246;28;19932;-47
2021/10/16 05:01:54;;;;;;;;;;;;;;;18.36;59.22;99956.91;2065868;28;19909;-48
2021/10/16 05:02:54;;;;;;;;;;;;;;;18.36;59.13;99960.47;2067114;28;19916;-48
2021/10/16 05:03:54;;;;;;;;;;;;;;;18.36;59.24;99956.91;2075087;28;19913;-45
2021/10/16 05:04:55;;;;;;;;;;;;;;;18.36;59.12;99963.22;2079340;28;19928;-45
2021/10/16 05:05:55;;;;;;;;;;;;;;;18.36;59.08;99968.66;2080045;28;19916;-46
2021/10/16 05:06:56;;;;;;;;;;;;;;;18.36;59.10;99965.09;2078272;28;19921;-46
2021/10/16 05:07:56;;;;;;;;;;;;;;;18.36;59.25;99963.22;2077160;28;19930;-46
2021/10/16 05:08:57;;;;;;;;;;;;;;;18.35;59.11;99964.22;2078732;28;19913;-46
2021/10/16 05:09:57;;;;;;;;;;;;;;;18.36;59.10;99968.66;2080734;28;19917;-46
2021/10/16 05:10:57;;;;;;;;;;;;;;;18.35;59.24;99969.69;2067173;28;20398;-45
2021/10/16 05:11:58;;;;;;;;;;;;;;;18.36;59.19;99963.22;2065079;28;19952;-46
2021/10/16 05:12:58;;;;;;;;;;;;;;;18.36;59.08;99963.22;2078548;28;19917;-46
2021/10/16 05:13:59;;;;;;;;;;;;;;;18.35;59.07;99961.50;2075958;28;19963;-46
2021/10/16 05:14:59;;;;;;;;;;;;;;;18.36;59.08;99967.81;2075961;28;19925;-46
2021/10/16 05:15:59;;;;;;;;;;;;;;;18.36;59.28;99968.66;2076883;28;19912;-46
2021/10/16 05:17:00;;;;;;;;;;;;;;;18.36;59.11;99965.94;2072518;28;19956;-48